sensor_id;sensor_type;location;lat;lon;timestamp;pressure;altitude;pressure_sealevel;temperature;humidity
69593;BME280;56796;50.122;14.468;2023-05-07T00:14:03;981.8;;;10.82;90.02
69593;BME280;56796;50.122;14.468;2023-05-07T00:33:31;981.74;;;10.93;89.18
69593;BME280;56796;50.122;14.468;2023-05-07T00:52:57;981.73;;;10.96;88.88
69593;BME280;56796;50.122;14.468;2023-05-07T01:12:23;981.85;;;10.92;88.2
69593;BME280;56796;50.122;14.468;2023-05-07T01:31:49;981.91;;;10.83;87.8
69593;BME280;56796;50.122;14.468;2023-05-07T01:51:16;981.92;;;10.79;86.94
69593;BME280;56796;50.122;14.468;2023-05-07T02:10:42;982.04;;;10.88;85.66
69593;BME280;56796;50.122;14.468;2023-05-07T02:30:09;982;;;10.88;85.77
69593;BME280;56796;50.122;14.468;2023-05-07T02:49:35;982.12;;;10.76;87.39
69593;BME280;56796;50.122;14.468;2023-05-07T03:09:03;982.14;;;10.67;88.56
69593;BME280;56796;50.122;14.468;2023-05-07T03:28:28;982.11;;;10.45;88.49
69593;BME280;56796;50.122;14.468;2023-05-07T03:47:54;982.22;;;10.27;88.37
69593;BME280;56796;50.122;14.468;2023-05-07T04:07:20;982.09;;;10.13;87.68
69593;BME280;56796;50.122;14.468;2023-05-07T04:26:46;982.3;;;10.18;87.5
69593;BME280;56796;50.122;14.468;2023-05-07T04:46:13;982.43;;;10.41;86.91
69593;BME280;56796;50.122;14.468;2023-05-07T05:05:40;982.58;;;10.71;86.59
69593;BME280;56796;50.122;14.468;2023-05-07T05:25:07;982.72;;;10.66;85.53
69593;BME280;56796;50.122;14.468;2023-05-07T05:44:33;982.74;;;10.91;84.03
69593;BME280;56796;50.122;14.468;2023-05-07T06:04:01;982.84;;;11.13;83.56
69593;BME280;56796;50.122;14.468;2023-05-07T06:23:27;983.09;;;11.21;81.08
69593;BME280;56796;50.122;14.468;2023-05-07T06:42:55;983.3;;;11.72;79.47
69593;BME280;56796;50.122;14.468;2023-05-07T07:02:22;983.4;;;11.56;77.96
69593;BME280;56796;50.122;14.468;2023-05-07T07:21:49;983.48;;;11.63;78.4
69593;BME280;56796;50.122;14.468;2023-05-07T07:41:15;983.63;;;11.57;79.38
69593;BME280;56796;50.122;14.468;2023-05-07T08:00:42;983.72;;;11.46;80.69
69593;BME280;56796;50.122;14.468;2023-05-07T08:20:09;983.78;;;11.93;79.12
69593;BME280;56796;50.122;14.468;2023-05-07T08:39:36;983.91;;;12.22;79.51
69593;BME280;56796;50.122;14.468;2023-05-07T08:59:05;983.97;;;13.97;74.52
69593;BME280;56796;50.122;14.468;2023-05-07T09:18:34;984.05;;;13.54;72.44
69593;BME280;56796;50.122;14.468;2023-05-07T09:38:00;984.06;;;13.51;73.83
69593;BME280;56796;50.122;14.468;2023-05-07T09:57:31;984.12;;;13.84;72.58
69593;BME280;56796;50.122;14.468;2023-05-07T10:16:50;984.08;;;14.38;71.62
69593;BME280;56796;50.122;14.468;2023-05-07T10:36:20;983.94;;;15.58;67.1
69593;BME280;56796;50.122;14.468;2023-05-07T10:55:49;984.01;;;15.31;67.43
69593;BME280;56796;50.122;14.468;2023-05-07T11:15:14;983.95;;;15.42;68.84
69593;BME280;56796;50.122;14.468;2023-05-07T11:34:38;984.14;;;15;68.81
69593;BME280;56796;50.122;14.468;2023-05-07T11:54:03;984.19;;;13.43;73.76
69593;BME280;56796;50.122;14.468;2023-05-07T12:13:26;984.23;;;14.31;71.23
69593;BME280;56796;50.122;14.468;2023-05-07T12:32:53;984.29;;;15.06;68.72
69593;BME280;56796;50.122;14.468;2023-05-07T12:52:22;984.29;;;15.55;64.92
69593;BME280;56796;50.122;14.468;2023-05-07T13:11:50;984.26;;;15.76;64.16
69593;BME280;56796;50.122;14.468;2023-05-07T13:31:19;984.14;;;15.76;63.22
69593;BME280;56796;50.122;14.468;2023-05-07T13:50:45;984.1;;;15.34;62.9
69593;BME280;56796;50.122;14.468;2023-05-07T14:10:11;984.12;;;15.69;61.12
69593;BME280;56796;50.122;14.468;2023-05-07T14:29:36;984.16;;;14.96;63.44
69593;BME280;56796;50.122;14.468;2023-05-07T14:49:02;984.33;;;15.56;60.04
69593;BME280;56796;50.122;14.468;2023-05-07T15:08:28;984.11;;;15.19;60.33
69593;BME280;56796;50.122;14.468;2023-05-07T15:27:53;984.21;;;14.94;62.2
69593;BME280;56796;50.122;14.468;2023-05-07T15:47:18;984.25;;;14.46;63.94
69593;BME280;56796;50.122;14.468;2023-05-07T16:06:43;984.34;;;13.75;64.9
69593;BME280;56796;50.122;14.468;2023-05-07T16:26:07;984.35;;;13;67.1
69593;BME280;56796;50.122;14.468;2023-05-07T16:45:32;984.68;;;12.81;67.31
69593;BME280;56796;50.122;14.468;2023-05-07T17:04:57;984.67;;;11.82;69.69
69593;BME280;56796;50.122;14.468;2023-05-07T17:24:21;984.88;;;11.51;70.62
69593;BME280;56796;50.122;14.468;2023-05-07T17:43:45;985.16;;;10.71;72.6
69593;BME280;56796;50.122;14.468;2023-05-07T18:03:12;985.48;;;10.14;74.46
69593;BME280;56796;50.122;14.468;2023-05-07T18:22:29;985.63;;;9.55;76.34
69593;BME280;56796;50.122;14.468;2023-05-07T18:41:53;985.93;;;9.13;76.77
69593;BME280;56796;50.122;14.468;2023-05-07T19:01:17;986.14;;;8.85;77.79
69593;BME280;56796;50.122;14.468;2023-05-07T19:20:43;986.36;;;8.47;79.45
69593;BME280;56796;50.122;14.468;2023-05-07T19:40:08;986.5;;;8.21;80.68
69593;BME280;56796;50.122;14.468;2023-05-07T19:59:33;986.52;;;7.94;81.62
69593;BME280;56796;50.122;14.468;2023-05-07T20:18:58;986.67;;;7.71;81.76
69593;BME280;56796;50.122;14.468;2023-05-07T20:38:23;986.91;;;7.49;81.89
69593;BME280;56796;50.122;14.468;2023-05-07T20:57:49;987.17;;;7.39;82.07
69593;BME280;56796;50.122;14.468;2023-05-07T21:17:15;987.27;;;7.31;82.5
69593;BME280;56796;50.122;14.468;2023-05-07T21:36:41;987.32;;;7.41;82.66
69593;BME280;56796;50.122;14.468;2023-05-07T21:56:07;987.31;;;7.49;81.88
69593;BME280;56796;50.122;14.468;2023-05-07T22:15:33;987.48;;;7.51;81.17
69593;BME280;56796;50.122;14.468;2023-05-07T22:34:59;987.56;;;7.42;81.46
69593;BME280;56796;50.122;14.468;2023-05-07T22:54:26;987.38;;;7.2;82.61
69593;BME280;56796;50.122;14.468;2023-05-07T23:13:52;987.3;;;7.04;83.45
69593;BME280;56796;50.122;14.468;2023-05-07T23:33:21;987.26;;;6.85;84.06
69593;BME280;56796;50.122;14.468;2023-05-07T23:52:39;987.19;;;6.54;85.67
